createdAt,value
2022-11-21T16:58:53.527Z,51.074505
2022-11-21T16:59:57.714Z,51.074505
2022-11-21T17:00:54.457Z,51.074509
2022-11-21T17:01:54.039Z,51.074566
2022-11-21T17:02:52.980Z,51.074505
2022-11-21T17:03:53.006Z,51.074505
2022-11-21T17:04:52.956Z,51.074505
2022-11-21T17:05:52.970Z,51.074577
2022-11-21T17:06:52.965Z,51.074574
2022-11-21T17:07:52.967Z,51.074539
2022-11-21T17:08:53.889Z,51.074593
2022-11-21T17:09:52.940Z,51.074635
2022-11-21T17:10:53.318Z,51.074638
2022-11-21T17:11:52.958Z,51.074608
2022-11-21T17:12:53.028Z,51.074482
2022-11-21T17:13:52.938Z,51.074455
2022-11-21T17:14:54.931Z,51.074463
2022-11-21T17:15:52.938Z,51.074451
2022-11-21T17:16:52.883Z,51.074490
2022-11-21T17:17:52.916Z,51.074558
2022-11-21T17:18:52.927Z,51.074528
2022-11-21T17:19:52.961Z,51.074509
2022-11-21T17:20:52.841Z,51.074543
2022-11-21T17:21:52.886Z,51.074474
2022-11-21T17:22:52.824Z,51.074535
2022-11-21T17:23:52.836Z,51.074524
2022-11-21T17:24:53.020Z,51.074421
2022-11-21T17:25:52.826Z,51.074451
2022-11-21T17:26:52.900Z,51.074459
2022-11-21T17:27:52.954Z,51.074486
2022-11-21T17:28:53.532Z,51.074467
2022-11-21T17:29:56.917Z,51.074409
2022-11-21T17:30:53.579Z,51.074471
2022-11-21T17:31:54.560Z,51.074467
2022-11-21T17:32:55.179Z,51.074471
2022-11-21T17:33:53.075Z,51.074451
2022-11-21T17:34:54.353Z,51.074493
2022-11-21T17:35:53.288Z,51.074451
2022-11-21T17:36:53.596Z,51.074463
2022-11-21T17:37:52.754Z,51.074448
2022-11-21T17:38:52.744Z,51.074455
2022-11-21T17:39:56.097Z,51.074459
2022-11-21T17:40:56.889Z,51.074463
2022-11-21T17:41:54.399Z,51.074478
2022-11-21T17:42:53.590Z,51.074516
2022-11-21T17:43:53.067Z,51.074478
2022-11-21T17:44:52.699Z,51.074490
2022-11-21T17:45:53.218Z,51.074532
2022-11-21T17:46:53.649Z,51.074448
2022-11-21T17:47:52.689Z,51.074459
